Time;durP1;ratioP1;P1;durP2;ratioP2;P2;SDS_P1;SDS_P2;PMS_P1;PMS_P2;Temp;Humidity;BMP_temperature;BMP_pressure;BME280_temperature;BME280_humidity;BME280_pressure;Samples;Min_cycle;Max_cycle;Signal;HPM_P1;HPM_P2
2023/03/03 00:01:16;;;;;;;125.60;26.77;;;0.40;99.90;;;;;;5013529;28;20959;-72
2023/03/03 00:03:41;;;;;;;129.10;26.43;;;0.30;99.90;;;;;;5012569;28;20473;-72
2023/03/03 00:06:10;;;;;;;126.30;26.03;;;0.30;99.90;;;;;;5013052;28;20414;-74
2023/03/03 00:08:36;;;;;;;129.80;27.80;;;0.20;99.90;;;;;;5012812;28;20586;-72
2023/03/03 00:11:04;;;;;;;123.17;27.77;;;0.20;99.90;;;;;;5012836;28;20456;-74
2023/03/03 00:13:31;;;;;;;126.93;27.47;;;0.20;99.90;;;;;;5012729;28;20200;-72
2023/03/03 00:16:15;;;;;;;131.13;27.23;;;0.20;99.90;;;;;;5012732;28;20994;-72
2023/03/03 00:18:44;;;;;;;129.47;27.63;;;0.10;99.90;;;;;;5012338;28;20498;-72
2023/03/03 00:21:39;;;;;;;131.17;27.00;;;0.10;99.90;;;;;;5012730;28;20452;-72
2023/03/03 00:24:18;;;;;;;131.97;28.87;;;0.10;99.90;;;;;;5022647;28;20454;-71
2023/03/03 00:26:54;;;;;;;124.43;26.83;;;0.00;99.90;;;;;;5012006;28;20431;-72
2023/03/03 00:29:39;;;;;;;131.67;26.27;;;0.00;99.90;;;;;;5012611;28;20398;-72
2023/03/03 00:32:43;;;;;;;122.87;28.00;;;0.00;99.90;;;;;;5012559;28;20972;-72
2023/03/03 00:35:23;;;;;;;127.77;27.47;;;0.00;99.90;;;;;;5012679;28;20439;-71
2023/03/03 00:37:55;;;;;;;124.57;27.77;;;-0.10;99.90;;;;;;5019847;28;20447;-71
2023/03/03 00:40:25;;;;;;;124.13;28.47;;;-0.10;99.90;;;;;;5011467;28;20479;-71
2023/03/03 00:42:57;;;;;;;125.90;28.17;;;-0.10;99.90;;;;;;5011824;28;20453;-73
2023/03/03 00:45:29;;;;;;;130.27;28.47;;;-0.20;99.90;;;;;;5011928;28;20538;-70
2023/03/03 00:47:56;;;;;;;121.97;25.97;;;-0.10;99.90;;;;;;5005361;28;20436;-72
2023/03/03 00:50:26;;;;;;;134.00;28.50;;;-0.20;99.90;;;;;;5010831;28;21097;-71
2023/03/03 00:53:05;;;;;;;127.70;27.17;;;-0.20;99.90;;;;;;5012332;28;20469;-73
2023/03/03 00:55:31;;;;;;;122.83;26.20;;;-0.20;99.90;;;;;;5011796;28;20802;-72
2023/03/03 00:57:56;;;;;;;126.57;26.20;;;-0.30;99.90;;;;;;5011976;28;20431;-72
2023/03/03 01:00:22;;;;;;;123.17;28.30;;;-0.30;99.90;;;;;;5004041;28;20453;-73
2023/03/03 01:02:47;;;;;;;123.53;26.53;;;-0.30;99.90;;;;;;5011597;28;20747;-72
2023/03/03 01:05:15;;;;;;;129.90;27.50;;;-0.30;99.90;;;;;;5012051;28;20226;-71
2023/03/03 01:07:41;;;;;;;126.90;29.47;;;-0.40;99.90;;;;;;5011476;28;20694;-73
2023/03/03 01:10:07;;;;;;;124.23;26.77;;;-0.40;99.90;;;;;;5011782;28;20405;-71
2023/03/03 01:12:32;;;;;;;128.00;26.70;;;-0.40;99.90;;;;;;5011426;28;20226;-71
2023/03/03 01:14:58;;;;;;;135.37;28.97;;;-0.40;99.90;;;;;;5011680;28;20429;-70
2023/03/03 01:17:24;;;;;;;127.17;27.80;;;-0.40;99.90;;;;;;5003993;28;20199;-71
2023/03/03 01:19:49;;;;;;;132.10;29.03;;;-0.40;99.90;;;;;;5003580;28;20203;-73
2023/03/03 01:22:15;;;;;;;130.27;30.40;;;-0.40;99.90;;;;;;5003687;28;20211;-72
2023/03/03 01:24:40;;;;;;;122.17;27.50;;;-0.40;99.90;;;;;;5011405;28;20248;-71
2023/03/03 01:27:06;;;;;;;129.13;27.37;;;-0.40;99.90;;;;;;5011664;28;20731;-72
2023/03/03 01:29:31;;;;;;;122.97;25.43;;;-0.50;99.90;;;;;;5011048;28;20187;-72
2023/03/03 01:31:57;;;;;;;122.40;26.53;;;-0.50;99.90;;;;;;5011315;28;20223;-71
2023/03/03 01:34:23;;;;;;;125.90;28.43;;;-0.60;99.90;;;;;;5011658;28;20217;-71
2023/03/03 01:36:48;;;;;;;120.70;25.17;;;-0.60;99.90;;;;;;5009524;28;20655;-71
2023/03/03 01:39:14;;;;;;;120.00;26.27;;;-0.60;99.90;;;;;;5011544;28;20416;-71
2023/03/03 01:41:40;;;;;;;129.10;28.00;;;-0.60;99.90;;;;;;5009215;28;20216;-72
2023/03/03 01:44:06;;;;;;;121.87;28.67;;;-0.60;99.90;;;;;;4997292;28;20360;-71
2023/03/03 01:46:43;;;;;;;121.33;26.70;;;-0.60;99.90;;;;;;5010473;28;20490;-72
2023/03/03 01:49:16;;;;;;;125.70;26.43;;;-0.60;99.90;;;;;;5005613;28;20191;-73
2023/03/03 01:51:49;;;;;;;121.37;25.63;;;-0.70;99.90;;;;;;5010767;28;20444;-71
2023/03/03 01:54:24;;;;;;;114.00;23.73;;;-0.60;99.90;;;;;;5011577;28;20508;-72
2023/03/03 01:56:51;;;;;;;122.40;26.67;;;-0.60;99.90;;;;;;5010769;28;20405;-73
2023/03/03 01:59:27;;;;;;;117.33;26.30;;;-0.70;99.90;;;;;;5011310;28;20465;-72
2023/03/03 03:32:29;;;;;;;136.90;32.80;;;0.00;99.90;;;;;;5189096;22;21020;-71
2023/03/03 03:34:55;;;;;;;134.63;30.07;;;0.10;99.90;;;;;;4999504;28;20420;-71
2023/03/03 03:37:20;;;;;;;138.53;31.20;;;0.10;99.90;;;;;;4994544;28;20279;-71
2023/03/03 03:39:46;;;;;;;131.20;32.60;;;0.30;99.90;;;;;;5002463;28;20196;-72
2023/03/03 03:42:11;;;;;;;136.27;32.10;;;0.30;99.90;;;;;;4979170;28;20212;-71
2023/03/03 03:44:37;;;;;;;131.60;32.20;;;0.40;99.90;;;;;;4974895;28;20855;-71
2023/03/03 03:47:03;;;;;;;132.87;32.40;;;0.50;99.90;;;;;;4975112;28;20188;-72
2023/03/03 03:49:28;;;;;;;136.30;30.80;;;0.60;99.90;;;;;;4973709;28;20187;-73
2023/03/03 03:51:54;;;;;;;138.70;33.17;;;0.60;99.90;;;;;;4974587;28;20201;-71
2023/03/03 03:54:19;;;;;;;133.23;31.73;;;0.70;99.90;;;;;;4981194;28;20196;-72
2023/03/03 03:56:45;;;;;;;141.20;30.80;;;0.70;99.90;;;;;;4976661;28;20193;-73
2023/03/03 03:59:10;;;;;;;136.90;31.30;;;0.80;99.90;;;;;;4975134;28;20241;-72
2023/03/03 04:01:36;;;;;;;137.37;31.30;;;0.80;99.90;;;;;;4990411;28;20694;-72
2023/03/03 04:04:02;;;;;;;139.27;33.13;;;0.90;99.90;;;;;;4990320;28;20217;-72
2023/03/03 04:06:28;;;;;;;137.60;32.67;;;0.90;99.90;;;;;;4981992;28;20322;-72
2023/03/03 04:08:54;;;;;;;148.57;33.37;;;1.00;99.90;;;;;;4985476;28;20517;-72
2023/03/03 04:11:20;;;;;;;130.53;33.57;;;1.00;99.90;;;;;;4993662;28;20214;-72
2023/03/03 04:13:45;;;;;;;126.23;31.57;;;1.00;99.90;;;;;;4977689;28;20466;-74
2023/03/03 04:16:11;;;;;;;124.23;30.50;;;1.10;99.90;;;;;;4993410;28;20237;-72
2023/03/03 04:18:36;;;;;;;136.67;32.80;;;1.10;99.90;;;;;;4977648;28;20194;-72
2023/03/03 04:21:02;;;;;;;133.40;31.13;;;1.20;99.90;;;;;;4974370;28;20573;-72
2023/03/03 04:23:28;;;;;;;143.33;32.13;;;1.20;99.90;;;;;;4974655;28;20190;-72
2023/03/03 04:25:53;;;;;;;132.83;32.03;;;1.30;99.90;;;;;;4982255;28;20203;-72
2023/03/03 04:28:19;;;;;;;135.87;32.10;;;1.30;99.90;;;;;;4988174;28;20194;-72
2023/03/03 04:30:44;;;;;;;131.37;32.23;;;1.30;99.90;;;;;;4983630;28;20210;-72
2023/03/03 04:33:10;;;;;;;130.70;31.70;;;1.40;99.90;;;;;;4982263;28;20177;-72
2023/03/03 04:35:35;;;;;;;131.47;31.53;;;1.40;99.90;;;;;;4974248;28;20621;-71
2023/03/03 04:38:01;;;;;;;138.67;31.73;;;1.50;99.90;;;;;;4989888;28;20249;-72
2023/03/03 04:40:26;;;;;;;135.40;32.80;;;1.50;99.90;;;;;;4974135;28;20206;-71
2023/03/03 04:42:52;;;;;;;141.00;33.47;;;1.50;99.90;;;;;;4975840;28;20641;-72
2023/03/03 04:45:17;;;;;;;135.90;32.00;;;1.50;99.90;;;;;;4992844;28;20260;-72
2023/03/03 04:47:43;;;;;;;132.60;32.57;;;1.60;99.90;;;;;;4992216;28;20187;-71
2023/03/03 04:50:10;;;;;;;136.27;33.83;;;1.60;99.90;;;;;;4988671;28;20202;-71
2023/03/03 04:52:36;;;;;;;136.67;34.67;;;1.60;99.90;;;;;;4981676;28;20204;-73
2023/03/03 04:55:02;;;;;;;136.63;33.27;;;1.60;99.90;;;;;;4991336;28;20401;-72
2023/03/03 04:57:27;;;;;;;150.03;38.00;;;1.70;99.90;;;;;;4978527;28;20192;-71
2023/03/03 04:59:53;;;;;;;140.97;33.77;;;1.70;99.90;;;;;;4975501;28;20938;-71
2023/03/03 05:02:19;;;;;;;138.87;33.53;;;1.80;99.90;;;;;;4978326;28;20248;-73
2023/03/03 05:04:44;;;;;;;136.63;34.13;;;1.80;99.90;;;;;;4981775;28;20251;-73
2023/03/03 05:07:10;;;;;;;140.17;35.50;;;1.80;99.90;;;;;;4976329;28;20435;-72
2023/03/03 05:09:36;;;;;;;143.77;35.83;;;1.80;99.90;;;;;;4984856;28;20182;-71
2023/03/03 05:12:02;;;;;;;137.97;36.77;;;1.90;99.90;;;;;;4973594;28;20212;-72
2023/03/03 05:14:28;;;;;;;133.57;33.70;;;1.90;99.90;;;;;;4973642;28;20198;-72
2023/03/03 05:16:53;;;;;;;139.17;35.67;;;1.90;99.90;;;;;;4973472;28;20439;-72
2023/03/03 05:19:19;;;;;;;151.17;41.40;;;1.90;99.90;;;;;;4978849;28;20195;-72
2023/03/03 05:21:44;;;;;;;155.83;39.13;;;1.90;99.90;;;;;;4976275;28;20560;-72
2023/03/03 05:24:11;;;;;;;147.27;39.37;;;1.90;99.90;;;;;;4987953;28;20216;-71
2023/03/03 05:26:38;;;;;;;148.03;35.03;;;1.90;99.90;;;;;;4988382;28;20581;-71
2023/03/03 05:29:05;;;;;;;170.17;40.33;;;1.90;99.90;;;;;;4973129;28;20428;-74
2023/03/03 05:31:31;;;;;;;148.00;36.83;;;2.00;99.90;;;;;;4980010;28;20514;-72
2023/03/03 05:33:57;;;;;;;138.70;34.10;;;1.90;99.90;;;;;;4992010;28;20864;-71
2023/03/03 05:36:22;;;;;;;138.10;32.83;;;2.00;99.90;;;;;;4978698;28;20199;-72
2023/03/03 05:38:48;;;;;;;140.00;35.50;;;2.00;99.90;;;;;;4989888;28;20683;-71
2023/03/03 05:41:13;;;;;;;144.87;32.37;;;2.00;99.90;;;;;;4992096;28;20637;-72
2023/03/03 05:43:39;;;;;;;153.73;35.30;;;2.00;99.90;;;;;;4976224;28;20204;-72
2023/03/03 05:46:04;;;;;;;146.30;34.50;;;2.10;99.90;;;;;;4988802;28;20544;-74
2023/03/03 05:48:30;;;;;;;142.27;33.80;;;2.10;99.90;;;;;;4973296;28;20726;-72
2023/03/03 05:50:59;;;;;;;159.40;36.27;;;2.10;99.90;;;;;;4973116;28;20217;-71
2023/03/03 05:53:26;;;;;;;151.40;35.83;;;2.10;99.90;;;;;;4978915;28;20242;-71
2023/03/03 05:55:52;;;;;;;157.63;36.10;;;2.10;99.90;;;;;;4989837;28;20815;-72
2023/03/03 05:58:17;;;;;;;146.20;35.60;;;2.20;99.90;;;;;;4979248;28;20408;-73
2023/03/03 06:00:43;;;;;;;167.90;44.00;;;2.20;99.90;;;;;;4972289;28;20208;-70
2023/03/03 06:03:08;;;;;;;141.37;35.50;;;2.20;99.90;;;;;;4972432;28;20267;-70
2023/03/03 06:05:34;;;;;;;139.87;33.20;;;2.20;99.90;;;;;;4972443;28;20641;-72
2023/03/03 06:08:00;;;;;;;145.27;33.43;;;2.30;99.90;;;;;;4972426;28;20707;-72
2023/03/03 06:10:25;;;;;;;144.57;34.30;;;2.30;99.90;;;;;;4972554;28;20194;-71
2023/03/03 06:12:51;;;;;;;137.40;32.47;;;2.30;99.90;;;;;;4972434;28;20192;-71
2023/03/03 06:15:17;;;;;;;137.60;33.80;;;2.40;99.90;;;;;;4972413;28;20182;-72
2023/03/03 06:17:42;;;;;;;138.60;32.80;;;2.40;99.90;;;;;;4972221;28;20189;-70
2023/03/03 06:20:08;;;;;;;147.40;37.20;;;2.40;99.90;;;;;;4972477;28;20229;-71
2023/03/03 06:22:34;;;;;;;146.67;35.30;;;2.40;99.90;;;;;;4971994;28;20258;-70
2023/03/03 06:25:00;;;;;;;143.60;33.17;;;2.40;99.90;;;;;;4972051;28;20534;-72
2023/03/03 06:27:25;;;;;;;142.90;35.00;;;2.40;99.90;;;;;;4972137;28;20197;-72
2023/03/03 06:29:51;;;;;;;142.63;34.73;;;2.40;99.90;;;;;;4972303;28;20190;-71
2023/03/03 06:32:16;;;;;;;142.93;35.30;;;2.40;99.90;;;;;;4972078;28;20219;-72
2023/03/03 06:34:42;;;;;;;147.37;33.43;;;2.50;99.90;;;;;;4971116;28;20192;-71
2023/03/03 06:37:07;;;;;;;144.00;34.03;;;2.50;99.90;;;;;;4990120;28;20276;-71
2023/03/03 06:39:33;;;;;;;136.97;34.63;;;2.50;99.90;;;;;;4979248;28;20190;-72
2023/03/03 06:41:58;;;;;;;138.20;32.37;;;2.60;99.90;;;;;;4973719;28;20218;-71
2023/03/03 06:44:24;;;;;;;140.90;34.40;;;2.60;99.90;;;;;;4975481;28;20591;-72
2023/03/03 06:46:49;;;;;;;131.93;32.00;;;2.60;99.90;;;;;;4975369;28;20197;-71
2023/03/03 06:49:15;;;;;;;131.30;31.70;;;2.60;99.90;;;;;;4975427;28;20259;-71
2023/03/03 06:51:41;;;;;;;136.30;28.57;;;2.70;99.90;;;;;;4975612;28;20221;-72
2023/03/03 06:54:18;;;;;;;133.20;31.33;;;2.60;99.90;;;;;;4975598;28;20195;-71
2023/03/03 06:56:45;;;;;;;125.60;29.27;;;2.70;99.90;;;;;;4975512;28;20933;-70
2023/03/03 06:59:15;;;;;;;131.50;30.20;;;2.70;99.90;;;;;;4975496;28;20455;-71
2023/03/03 07:01:42;;;;;;;125.20;27.97;;;2.80;99.90;;;;;;4975567;28;20421;-72
2023/03/03 07:04:30;;;;;;;129.47;29.03;;;2.80;99.90;;;;;;4975401;28;20473;-71
2023/03/03 07:07:14;;;;;;;131.93;29.73;;;2.90;99.90;;;;;;4975506;28;20802;-71
2023/03/03 07:09:42;;;;;;;124.63;28.43;;;2.90;99.90;;;;;;4975486;28;20443;-71
2023/03/03 07:12:28;;;;;;;128.20;28.80;;;2.90;99.90;;;;;;4990797;28;20927;-72
2023/03/03 07:15:32;;;;;;;128.10;29.20;;;2.90;99.90;;;;;;4975508;28;20516;-71
2023/03/03 07:17:58;;;;;;;126.43;28.87;;;3.00;99.90;;;;;;4975283;28;20535;-72
2023/03/03 07:20:38;;;;;;;128.30;30.67;;;3.00;99.90;;;;;;4974061;28;20519;-72
2023/03/03 07:23:41;;;;;;;125.67;28.40;;;3.00;99.90;;;;;;4975151;28;20468;-71
2023/03/03 07:26:13;;;;;;;129.53;29.57;;;3.10;99.90;;;;;;4965278;28;20441;-73
2023/03/03 07:28:44;;;;;;;120.53;26.70;;;3.10;99.90;;;;;;4975362;28;20651;-71
2023/03/03 07:31:35;;;;;;;124.40;28.47;;;3.20;99.90;;;;;;4974747;28;20987;-71
2023/03/03 07:34:03;;;;;;;137.57;31.17;;;3.20;99.90;;;;;;4974970;28;20403;-71
2023/03/03 07:36:33;;;;;;;120.00;27.40;;;3.30;99.90;;;;;;4973718;28;20486;-72
2023/03/03 07:39:13;;;;;;;120.00;27.17;;;3.30;99.90;;;;;;4974703;28;20440;-73
2023/03/03 07:41:38;;;;;;;118.50;27.67;;;3.40;99.90;;;;;;4975115;28;20946;-71
2023/03/03 07:44:06;;;;;;;124.37;27.57;;;3.50;99.90;;;;;;4974721;28;20530;-72
2023/03/03 07:46:47;;;;;;;120.70;26.97;;;3.50;99.90;;;;;;4971297;28;20183;-71
2023/03/03 07:49:32;;;;;;;133.23;29.90;;;3.60;99.90;;;;;;4973989;28;20420;-71
2023/03/03 07:51:59;;;;;;;122.40;27.20;;;3.70;99.90;;;;;;4974594;28;20445;-72
2023/03/03 07:54:44;;;;;;;122.30;27.77;;;3.80;99.90;;;;;;4974696;28;20592;-72
2023/03/03 07:57:25;;;;;;;122.17;26.53;;;3.90;99.90;;;;;;4973288;28;20775;-71
2023/03/03 08:00:12;;;;;;;125.57;27.83;;;4.00;99.90;;;;;;4974486;28;20431;-72
2023/03/03 08:02:39;;;;;;;129.53;27.47;;;4.10;99.90;;;;;;4951799;28;20833;-71
2023/03/03 08:05:28;;;;;;;119.30;27.77;;;4.10;99.90;;;;;;4974290;28;20531;-72
2023/03/03 08:08:16;;;;;;;117.30;26.50;;;4.20;99.90;;;;;;4981194;28;20427;-71
2023/03/03 08:10:56;;;;;;;123.63;28.50;;;4.40;99.90;;;;;;4974300;28;20422;-72
2023/03/03 08:13:36;;;;;;;120.53;27.80;;;4.60;99.90;;;;;;4974475;28;20942;-72
2023/03/03 08:16:25;;;;;;;127.37;27.07;;;4.80;99.90;;;;;;4974287;28;20509;-72
2023/03/03 08:18:52;;;;;;;130.03;29.70;;;4.80;99.90;;;;;;4974267;28;20529;-71
2023/03/03 08:21:18;;;;;;;125.57;26.77;;;5.00;99.90;;;;;;4974057;28;20866;-72
2023/03/03 08:23:44;;;;;;;117.77;26.50;;;5.10;99.90;;;;;;4974170;28;20470;-72
2023/03/03 08:26:12;;;;;;;119.37;26.53;;;5.50;99.90;;;;;;4973849;28;20466;-72
2023/03/03 08:28:38;;;;;;;118.07;23.70;;;6.00;99.90;;;;;;4980726;28;20944;-72
2023/03/03 08:31:04;;;;;;;118.60;24.07;;;6.40;99.90;;;;;;4990396;28;20451;-72
2023/03/03 08:33:29;;;;;;;113.27;22.97;;;6.90;99.90;;;;;;4972782;28;20655;-71
2023/03/03 08:35:55;;;;;;;116.20;22.67;;;7.20;99.90;;;;;;4973943;28;20197;-71
2023/03/03 08:38:21;;;;;;;111.20;22.57;;;7.80;99.90;;;;;;4973845;28;20195;-71
2023/03/03 08:40:47;;;;;;;114.87;23.37;;;8.10;99.90;;;;;;4973582;28;20704;-71
2023/03/03 08:43:16;;;;;;;117.10;25.30;;;8.00;99.90;;;;;;4973592;28;20466;-71
2023/03/03 08:45:43;;;;;;;111.97;23.20;;;8.40;99.90;;;;;;4980541;28;20552;-69
2023/03/03 08:48:09;;;;;;;125.00;26.50;;;8.80;99.90;;;;;;4982100;28;20438;-73
2023/03/03 08:50:35;;;;;;;116.80;25.13;;;9.00;99.90;;;;;;4973537;28;20483;-71
2023/03/03 08:53:00;;;;;;;112.30;23.80;;;9.20;99.90;;;;;;4974885;28;20293;-72
2023/03/03 08:55:26;;;;;;;121.17;24.07;;;9.30;99.90;;;;;;4980066;28;20195;-73
2023/03/03 08:57:51;;;;;;;113.67;25.20;;;9.30;99.90;;;;;;4973450;28;20253;-74
2023/03/03 09:00:17;;;;;;;115.70;26.00;;;9.60;99.90;;;;;;4980028;28;20202;-73
2023/03/03 09:02:43;;;;;;;120.57;26.10;;;9.70;99.90;;;;;;4973090;28;20223;-73
2023/03/03 09:05:10;;;;;;;114.47;24.53;;;9.80;99.90;;;;;;4988967;28;20858;-73
2023/03/03 09:07:35;;;;;;;120.53;25.13;;;9.70;99.90;;;;;;4973408;28;20670;-72
2023/03/03 09:10:01;;;;;;;105.50;23.60;;;9.90;99.90;;;;;;4972948;28;20427;-73
2023/03/03 09:12:34;;;;;;;111.17;23.57;;;9.90;99.90;;;;;;4973209;28;20210;-73
2023/03/03 09:15:32;;;;;;;117.10;24.77;;;10.40;99.90;;;;;;4973093;28;20872;-72
2023/03/03 09:18:07;;;;;;;109.00;22.67;;;10.70;99.90;;;;;;4964021;28;20533;-72
2023/03/03 09:20:50;;;;;;;111.27;22.53;;;11.10;99.90;;;;;;4972904;28;20426;-73
2023/03/03 09:23:28;;;;;;;108.23;24.60;;;11.40;99.90;;;;;;4973149;28;20489;-72
2023/03/03 09:25:54;;;;;;;108.97;24.33;;;11.40;99.90;;;;;;4972931;28;20598;-72
2023/03/03 09:28:29;;;;;;;111.00;24.60;;;11.40;99.90;;;;;;4987616;28;20522;-73
2023/03/03 09:31:00;;;;;;;110.43;25.37;;;11.20;99.90;;;;;;4972363;28;20214;-72
2023/03/03 09:33:45;;;;;;;108.17;23.47;;;10.80;99.90;;;;;;4973038;28;20422;-74
2023/03/03 09:36:28;;;;;;;113.07;24.67;;;10.70;99.90;;;;;;4972637;28;21003;-72
2023/03/03 09:38:57;;;;;;;109.10;24.00;;;10.30;99.90;;;;;;4972456;28;20435;-71
2023/03/03 09:41:30;;;;;;;110.90;23.90;;;10.10;99.90;;;;;;4972680;28;20458;-73
2023/03/03 09:44:17;;;;;;;121.63;25.10;;;10.10;99.90;;;;;;4972564;28;20470;-73
2023/03/03 09:47:04;;;;;;;113.97;22.70;;;9.80;99.90;;;;;;4972697;28;20433;-74
2023/03/03 09:49:56;;;;;;;114.50;26.13;;;9.80;99.90;;;;;;4972660;28;20423;-72
2023/03/03 09:52:59;;;;;;;112.90;24.23;;;9.80;99.90;;;;;;4962727;28;20469;-72
2023/03/03 09:55:49;;;;;;;116.20;25.63;;;9.80;99.90;;;;;;4972761;28;20438;-73
2023/03/03 09:58:32;;;;;;;122.23;24.53;;;10.00;99.90;;;;;;4972532;28;20425;-72
2023/03/03 10:01:00;;;;;;;107.77;23.20;;;10.30;99.90;;;;;;4972158;28;20451;-73
2023/03/03 10:03:32;;;;;;;111.70;25.63;;;10.20;99.90;;;;;;4972700;28;20450;-73
2023/03/03 10:06:03;;;;;;;120.13;25.80;;;9.70;99.90;;;;;;4970952;28;20469;-74
2023/03/03 10:08:48;;;;;;;111.00;24.93;;;9.50;99.90;;;;;;4972676;28;20437;-73
2023/03/03 10:11:47;;;;;;;116.37;25.50;;;9.60;99.90;;;;;;4980531;28;20497;-74
2023/03/03 10:14:27;;;;;;;114.33;25.30;;;9.70;99.90;;;;;;4972681;28;20534;-74
2023/03/03 10:17:05;;;;;;;112.50;25.33;;;9.80;99.90;;;;;;4972348;28;20470;-73
2023/03/03 10:19:58;;;;;;;111.33;23.73;;;9.90;99.90;;;;;;4972249;28;20525;-72
2023/03/03 10:22:29;;;;;;;113.77;24.27;;;10.20;99.90;;;;;;4972321;28;20866;-73
2023/03/03 10:25:07;;;;;;;111.17;24.00;;;10.40;99.90;;;;;;4972370;28;20467;-73
2023/03/03 10:28:14;;;;;;;113.53;26.00;;;10.40;99.90;;;;;;4972318;28;20425;-74
2023/03/03 10:30:58;;;;;;;112.50;24.57;;;10.60;99.90;;;;;;4977574;28;20439;-73
2023/03/03 10:33:44;;;;;;;112.23;26.30;;;11.40;99.90;;;;;;4970944;28;20441;-73
2023/03/03 10:37:02;;;;;;;121.60;27.10;;;11.60;99.90;;;;;;4972088;28;20445;-72
2023/03/03 10:39:40;;;;;;;114.07;27.57;;;11.80;99.90;;;;;;4923702;29;20472;-73
2023/03/03 10:42:19;;;;;;;117.57;28.53;;;11.70;99.90;;;;;;4921931;29;20461;-74
2023/03/03 10:44:59;;;;;;;115.67;27.50;;;12.00;99.90;;;;;;4950405;28;20467;-74
2023/03/03 10:47:38;;;;;;;33.60;23.20;;;12.00;99.90;;;;;;4975753;28;20418;-74
2023/03/03 10:50:32;;;;;;;40.33;23.80;;;12.10;99.90;;;;;;4989832;28;20430;-74
2023/03/03 10:53:22;;;;;;;36.77;23.87;;;11.80;99.90;;;;;;4987430;28;20426;-75
2023/03/03 10:55:57;;;;;;;36.13;24.83;;;12.00;99.90;;;;;;4972219;28;20478;-73
2023/03/03 10:58:26;;;;;;;44.27;24.23;;;12.50;99.90;;;;;;4987800;28;20463;-74
2023/03/03 11:01:00;;;;;;;39.43;26.03;;;12.50;99.90;;;;;;4971572;28;20459;-73
2023/03/03 11:03:48;;;;;;;38.97;25.30;;;13.00;99.90;;;;;;4972042;28;20423;-71
2023/03/03 11:06:28;;;;;;;43.10;24.47;;;13.40;99.90;;;;;;4970725;28;20856;-71
2023/03/03 11:09:36;;;;;;;36.87;23.83;;;13.00;99.90;;;;;;4971685;28;20470;-72
2023/03/03 11:12:17;;;;;;;38.60;24.03;;;12.70;99.90;;;;;;4963610;28;20455;-72
2023/03/03 11:14:51;;;;;;;37.63;25.50;;;13.20;99.90;;;;;;4972022;28;20441;-72
2023/03/03 11:17:42;;;;;;;37.27;22.47;;;13.40;99.90;;;;;;4971808;28;20446;-70
2023/03/03 11:20:31;;;;;;;46.20;26.07;;;12.80;99.90;;;;;;4971621;28;20431;-71
2023/03/03 11:23:25;;;;;;;35.20;24.47;;;12.50;99.90;;;;;;4971654;28;20445;-72
2023/03/03 11:26:17;;;;;;;39.37;23.33;;;12.20;99.90;;;;;;4975034;28;20544;-71
2023/03/03 11:29:06;;;;;;;38.90;25.40;;;11.70;99.90;;;;;;4974061;28;20828;-74
2023/03/03 11:31:38;;;;;;;40.10;24.07;;;11.60;99.90;;;;;;4974992;28;20465;-71
2023/03/03 11:34:34;;;;;;;37.63;23.80;;;11.50;99.90;;;;;;4974974;28;20439;-73
2023/03/03 11:37:06;;;;;;;38.23;24.47;;;11.30;99.90;;;;;;4973354;28;20431;-75
2023/03/03 11:39:32;;;;;;;37.90;23.67;;;11.10;99.90;;;;;;4975029;28;20431;-71
2023/03/03 11:42:29;;;;;;;38.20;22.30;;;10.90;99.90;;;;;;4974636;28;20482;-73
2023/03/03 11:45:19;;;;;;;37.37;22.73;;;10.80;99.90;;;;;;4974817;28;20214;-72
2023/03/03 11:48:19;;;;;;;32.13;21.10;;;10.70;99.90;;;;;;4966115;28;20453;-72
2023/03/03 11:50:48;;;;;;;48.17;25.17;;;10.70;99.90;;;;;;4942957;28;20453;-72
2023/03/03 11:53:51;;;;;;;62.00;23.07;;;10.70;99.90;;;;;;4974655;28;20502;-74
2023/03/03 11:56:25;;;;;;;65.70;25.37;;;10.80;99.90;;;;;;4974668;28;20530;-73
2023/03/03 11:59:06;;;;;;;32.70;21.07;;;10.60;99.90;;;;;;4974841;28;20430;-73
2023/03/03 12:01:44;;;;;;;41.63;22.50;;;10.70;99.90;;;;;;4974649;28;21030;-73
2023/03/03 12:04:14;;;;;;;36.13;22.53;;;10.80;99.90;;;;;;4973370;28;20485;-71
2023/03/03 12:06:53;;;;;;;32.57;21.03;;;10.80;99.90;;;;;;4974516;28;20431;-72
2023/03/03 12:09:49;;;;;;;33.00;22.43;;;10.80;99.90;;;;;;4974376;28;20518;-73
2023/03/03 12:12:23;;;;;;;33.93;22.10;;;10.90;99.90;;;;;;4974468;28;20446;-73
2023/03/03 12:15:08;;;;;;;31.50;21.77;;;11.00;99.90;;;;;;4974718;28;20940;-72
2023/03/03 12:17:54;;;;;;;38.13;23.33;;;10.80;99.90;;;;;;4974261;28;20435;-72
2023/03/03 12:20:44;;;;;;;28.90;21.70;;;10.80;99.90;;;;;;4987792;28;20441;-74
2023/03/03 12:23:39;;;;;;;32.50;21.20;;;11.10;99.90;;;;;;4979061;28;20509;-74
2023/03/03 12:26:30;;;;;;;29.43;21.63;;;11.50;99.90;;;;;;4973710;28;20471;-73
2023/03/03 12:29:24;;;;;;;34.40;21.57;;;11.70;99.90;;;;;;4976528;28;20469;-73
2023/03/03 12:32:15;;;;;;;30.03;20.90;;;11.80;99.90;;;;;;4973920;28;20455;-72
2023/03/03 12:34:47;;;;;;;29.63;22.37;;;11.70;99.90;;;;;;4974257;28;20518;-73
2023/03/03 12:37:21;;;;;;;34.53;21.70;;;11.70;99.90;;;;;;4972874;28;20435;-72
2023/03/03 12:40:17;;;;;;;34.90;22.60;;;11.70;99.90;;;;;;4977569;28;20441;-73
2023/03/03 12:43:07;;;;;;;37.50;21.97;;;11.40;99.90;;;;;;4973811;28;20451;-74
2023/03/03 12:45:46;;;;;;;42.23;23.20;;;11.50;99.90;;;;;;4974116;28;20498;-75
2023/03/03 12:48:37;;;;;;;35.30;21.70;;;11.40;99.90;;;;;;4977243;28;20450;-73
2023/03/03 12:51:25;;;;;;;35.10;22.33;;;11.40;99.90;;;;;;4987118;28;21330;-74
2023/03/03 12:54:28;;;;;;;30.23;21.97;;;11.30;99.90;;;;;;4973651;28;21011;-72
2023/03/03 12:57:11;;;;;;;39.73;23.47;;;11.30;99.90;;;;;;4960401;28;20454;-72
2023/03/03 13:00:12;;;;;;;35.80;23.00;;;11.10;99.90;;;;;;4987703;28;20428;-72
2023/03/03 13:02:50;;;;;;;33.87;22.03;;;11.10;99.90;;;;;;4992318;28;20522;-72
2023/03/03 13:05:24;;;;;;;32.80;21.23;;;11.20;99.90;;;;;;4975290;28;20575;-72
2023/03/03 13:07:55;;;;;;;40.60;22.60;;;11.30;99.90;;;;;;4975120;28;20510;-73
2023/03/03 13:10:41;;;;;;;35.33;21.80;;;11.20;99.90;;;;;;4982129;28;20489;-72
2023/03/03 13:13:26;;;;;;;35.87;21.97;;;11.30;99.90;;;;;;4991699;28;20562;-71
2023/03/03 13:16:03;;;;;;;33.17;20.47;;;11.30;99.90;;;;;;4973257;28;20497;-72
2023/03/03 13:18:52;;;;;;;32.83;21.43;;;10.80;99.90;;;;;;4979541;28;20441;-72
2023/03/03 13:21:35;;;;;;;33.53;22.17;;;10.80;99.90;;;;;;4981285;28;20474;-72
2023/03/03 13:24:22;;;;;;;38.73;23.50;;;10.70;99.90;;;;;;4972894;28;20524;-73
2023/03/03 13:26:56;;;;;;;31.40;21.53;;;10.50;99.90;;;;;;4972993;28;20431;-72
2023/03/03 13:29:44;;;;;;;32.27;23.10;;;10.50;99.90;;;;;;4976159;28;20481;-72
2023/03/03 13:32:23;;;;;;;40.50;22.60;;;10.60;99.90;;;;;;4972618;28;20455;-72
2023/03/03 13:34:58;;;;;;;38.90;22.23;;;10.70;99.90;;;;;;4972704;28;20567;-73
2023/03/03 13:37:32;;;;;;;35.60;22.80;;;10.70;99.90;;;;;;4972558;28;20451;-73
2023/03/03 13:40:02;;;;;;;34.83;22.97;;;10.80;99.90;;;;;;4976978;28;20816;-73
2023/03/03 13:42:38;;;;;;;35.40;21.40;;;10.80;99.90;;;;;;4972760;28;20459;-73
2023/03/03 13:45:37;;;;;;;39.53;22.73;;;10.80;99.90;;;;;;4972562;28;20827;-73
2023/03/03 13:48:37;;;;;;;42.10;22.50;;;10.80;99.90;;;;;;4974199;28;20446;-72
2023/03/03 13:51:30;;;;;;;38.23;23.87;;;10.80;99.90;;;;;;4983778;28;20924;-73
2023/03/03 13:54:20;;;;;;;36.37;22.97;;;10.80;99.90;;;;;;4971206;28;20431;-72
2023/03/03 13:56:48;;;;;;;35.13;22.10;;;10.80;99.90;;;;;;4972546;28;20959;-72
2023/03/03 13:59:22;;;;;;;38.43;23.60;;;10.70;99.90;;;;;;4982721;28;20524;-72
2023/03/03 14:02:14;;;;;;;34.87;21.90;;;10.60;99.90;;;;;;4976765;28;20458;-71
2023/03/03 14:04:49;;;;;;;32.10;21.87;;;10.70;99.90;;;;;;4972537;28;20903;-72
2023/03/03 14:07:27;;;;;;;41.63;24.17;;;10.60;99.90;;;;;;4972253;28;20792;-74
2023/03/03 14:10:20;;;;;;;35.00;22.93;;;10.40;99.90;;;;;;4984537;28;20458;-73
2023/03/03 14:13:03;;;;;;;37.63;22.57;;;10.40;99.90;;;;;;4971054;28;20816;-73
2023/03/03 14:15:47;;;;;;;40.57;23.30;;;10.40;99.90;;;;;;4971164;28;20441;-72
2023/03/03 14:18:29;;;;;;;43.10;21.87;;;10.40;99.90;;;;;;4975926;28;20858;-72
2023/03/03 14:21:19;;;;;;;42.57;24.00;;;10.40;99.90;;;;;;4976309;28;20463;-70
2023/03/03 14:24:17;;;;;;;37.60;23.10;;;10.40;99.90;;;;;;4977243;28;20459;-72
2023/03/03 14:26:50;;;;;;;40.13;22.37;;;10.40;99.90;;;;;;4977314;28;20446;-71
2023/03/03 14:29:30;;;;;;;43.07;24.30;;;10.50;99.90;;;;;;4982075;28;20438;-72
2023/03/03 14:32:00;;;;;;;32.60;20.90;;;10.40;99.90;;;;;;4988421;28;20465;-70
2023/03/03 14:34:30;;;;;;;36.93;23.67;;;10.40;99.90;;;;;;4990124;28;20441;-71